Time;durP1;ratioP1;P1;durP2;ratioP2;P2;SDS_P1;SDS_P2;PMS_P1;PMS_P2;Temp;Humidity;BMP_temperature;BMP_pressure;BME280_temperature;BME280_humidity;BME280_pressure;Samples;Min_cycle;Max_cycle;Signal;HPM_P1;HPM_P2
2021/03/15 00:01:19;;;;;;;16.37;9.60;;;;;;;3.05;72.04;99351.15;1670338;85;25539;-55
2021/03/15 00:03:45;;;;;;;12.43;8.40;;;;;;;3.00;72.00;99348.01;1669847;85;25904;-55
2021/03/15 00:06:11;;;;;;;19.30;8.73;;;;;;;2.96;72.16;99348.30;1670113;85;25642;-56
2021/03/15 00:08:38;;;;;;;13.48;7.85;;;;;;;2.91;72.11;99357.17;1670200;85;25575;-56
2021/03/15 00:13:33;;;;;;;11.28;7.17;;;;;;;2.82;72.27;99364.72;1679645;85;25318;-54
2021/03/15 00:15:59;;;;;;;13.88;8.55;;;;;;;2.76;72.36;99371.98;1651470;86;25900;-54
2021/03/15 00:18:27;;;;;;;12.63;8.38;;;;;;;2.70;72.34;99376.55;1654095;85;25417;-54
2021/03/15 00:20:54;;;;;;;16.60;7.75;;;;;;;2.64;72.47;99372.34;1685284;80;25642;-53
2021/03/15 00:25:56;;;;;;;14.00;8.05;;;;;;;2.52;72.65;99374.03;1703116;82;25611;-56
2021/03/15 00:28:22;;;;;;;13.30;7.90;;;;;;;2.48;72.71;99378.86;1709698;83;25726;-56
2021/03/15 00:30:49;;;;;;;14.63;7.92;;;;;;;2.43;72.72;99382.34;1709523;83;25564;-56
2021/03/15 00:33:15;;;;;;;14.23;7.70;;;;;;;2.37;72.91;99385.59;1734316;82;25531;-56
2021/03/15 00:38:17;;;;;;;13.00;7.45;;;;;;;2.30;73.02;99389.11;1707516;81;25518;-62
2021/03/15 00:40:44;;;;;;;11.55;7.08;;;;;;;2.24;73.21;99386.98;1703136;84;25718;-63
2021/03/15 00:43:10;;;;;;;17.75;8.23;;;;;;;2.20;73.17;99385.95;1676124;85;25708;-62
2021/03/15 00:45:37;;;;;;;14.30;7.92;;;;;;;2.12;72.89;99387.08;1676317;85;25563;-62
2021/03/15 00:48:04;;;;;;;13.83;8.13;;;;;;;2.03;72.87;99387.64;1676294;85;25553;-63
2021/03/15 00:50:40;;;;;;;14.55;8.18;;;;;;;1.97;73.05;99386.06;1703196;84;25528;-62
2021/03/15 00:53:03;;;;;;;15.72;8.88;;;;;;;1.90;72.91;99390.89;1702680;84;25942;-62
2021/03/15 00:55:30;;;;;;;13.38;9.10;;;;;;;1.81;73.05;99384.00;1703023;84;25414;-63
2021/03/15 00:57:56;;;;;;;15.08;8.28;;;;;;;1.74;73.14;99389.34;1703123;84;25367;-63
2021/03/15 01:00:27;;;;;;;16.20;8.80;;;;;;;1.68;73.33;99392.58;1702987;84;25304;-69
2021/03/15 01:02:54;;;;;;;15.20;8.13;;;;;;;1.62;73.45;99387.80;1676371;85;25362;-63
2021/03/15 01:05:26;;;;;;;15.15;7.65;;;;;;;1.55;73.33;99391.81;1676324;85;25798;-63
2021/03/15 01:07:52;;;;;;;16.17;8.23;;;;;;;1.45;73.29;99389.99;1675949;85;25647;-63
2021/03/15 01:10:24;;;;;;;17.27;8.03;;;;;;;1.38;73.49;99394.27;1647205;85;25378;-64
2021/03/15 01:12:50;;;;;;;15.15;8.05;;;;;;;;;;1676309;85;25486;-63
2021/03/15 01:15:20;;;;;;;15.10;7.60;;;;;;;1.24;73.79;99395.88;1676331;85;25476;-63
2021/03/15 01:17:46;;;;;;;14.75;8.25;;;;;;;1.15;73.71;99398.83;1702972;84;25732;-63
2021/03/15 01:20:14;;;;;;;14.53;7.92;;;;;;;1.06;73.91;99401.23;1676355;85;25327;-65
2021/03/15 01:22:41;;;;;;;17.57;9.45;;;;;;;0.99;73.96;99396.18;1676412;85;25395;-63
2021/03/15 01:25:09;;;;;;;19.10;8.75;;;;;;;0.93;74.18;99398.56;1676164;85;25292;-64
2021/03/15 01:27:36;;;;;;;20.97;8.63;;;;;;;0.89;74.49;99404.17;1676365;85;25475;-63
2021/03/15 01:30:11;;;;;;;12.65;7.45;;;;;;;0.84;74.51;99398.84;1701981;84;28073;-63
2021/03/15 01:32:45;;;;;;;12.93;7.80;;;;;;;0.85;74.72;99405.75;1848939;76;35018;-63
2021/03/15 01:35:12;;;;;;;18.07;9.38;;;;;;;0.70;74.77;99390.59;1818038;78;25717;-64
2021/03/15 01:37:38;;;;;;;12.43;8.00;;;;;;;0.65;74.67;99397.23;1818080;78;26641;-62
2021/03/15 01:40:07;;;;;;;13.80;7.97;;;;;;;0.59;74.56;99396.42;1818020;78;25610;-63
2021/03/15 01:42:33;;;;;;;18.65;8.43;;;;;;;0.50;74.48;99387.38;1818559;78;25355;-63
2021/03/15 01:44:59;;;;;;;13.45;7.97;;;;;;;0.44;74.45;99384.42;1819572;78;25286;-63
2021/03/15 01:47:27;;;;;;;16.05;8.60;;;;;;;0.36;74.41;99391.08;1819722;78;25281;-63
2021/03/15 01:49:54;;;;;;;12.68;7.05;;;;;;;0.29;74.47;99385.19;1819558;78;25705;-63
2021/03/15 01:52:22;;;;;;;13.90;8.38;;;;;;;0.23;74.96;99380.39;1819473;78;25265;-63
2021/03/15 01:54:49;;;;;;;12.33;7.33;;;;;;;0.20;75.25;99378.80;1819593;78;25346;-63
2021/03/15 01:57:16;;;;;;;15.83;8.23;;;;;;;0.16;75.94;99375.86;1787667;78;25348;-63
2021/03/15 01:59:42;;;;;;;13.13;7.60;;;;;;;0.15;75.87;99370.27;1819623;78;25507;-63
2021/03/15 02:02:09;;;;;;;12.35;7.53;;;;;;;0.13;75.83;99368.41;1819546;78;25755;-63
2021/03/15 02:04:36;;;;;;;13.45;7.92;;;;;;;0.08;76.04;99366.52;1819457;78;25480;-63
2021/03/15 02:07:03;;;;;;;15.93;8.33;;;;;;;0.04;75.77;99369.45;1819546;78;25446;-63
2021/03/15 02:09:30;;;;;;;12.20;7.60;;;;;;;-0.01;75.48;99378.73;1819505;78;25449;-62
2021/03/15 02:12:06;;;;;;;12.55;7.37;;;;;;;-0.06;75.33;99378.72;1819660;78;25452;-65
2021/03/15 02:15:08;;;;;;;12.53;7.90;;;;;;;-0.15;75.37;99382.41;1819553;78;28096;-62
2021/03/15 02:17:50;;;;;;;17.02;8.25;;;;;;;-0.22;75.44;99387.97;1819515;78;25315;-62
2021/03/15 02:21:09;;;;;;;18.05;7.60;;;;;;;-0.31;76.34;99391.37;1819480;78;25333;-64
2021/03/15 02:23:49;;;;;;;19.37;8.88;;;;;;;-0.38;77.13;99387.08;1819611;78;25445;-63
2021/03/15 02:26:41;;;;;;;13.03;8.63;;;;;;;-0.41;77.52;99386.80;1819441;78;25591;-64
2021/03/15 02:29:31;;;;;;;16.97;8.93;;;;;;;-0.44;77.76;99382.81;1816812;78;26682;-64
2021/03/15 02:32:33;;;;;;;16.25;9.20;;;;;;;-0.46;77.80;99382.28;1824293;78;25438;-63
2021/03/15 02:35:08;;;;;;;20.57;9.53;;;;;;;-0.50;78.06;99381.18;1828850;78;25481;-63
2021/03/15 02:38:04;;;;;;;18.25;9.60;;;;;;;-0.52;77.94;99382.51;1828825;78;25456;-63
2021/03/15 02:40:44;;;;;;;18.00;9.80;;;;;;;-0.54;78.43;99382.77;1828833;78;25478;-64
2021/03/15 02:43:29;;;;;;;18.85;9.75;;;;;;;-0.57;78.44;99385.92;1828497;78;25762;-64
2021/03/15 02:46:06;;;;;;;22.30;11.18;;;;;;;-0.58;78.80;99381.66;1828167;78;25325;-64
2021/03/15 02:48:35;;;;;;;18.35;10.80;;;;;;;-0.60;79.21;99381.91;1824363;78;25667;-64
2021/03/15 02:51:06;;;;;;;;;;;;;;;-0.62;79.14;99376.06;1826783;78;25238;-64
2021/03/15 02:53:35;;;;;;;16.75;9.78;;;;;;;-0.62;79.29;99387.23;1823686;78;25332;-64
2021/03/15 02:56:07;;;;;;;17.85;9.75;;;;;;;-0.63;79.15;99396.24;1823927;78;28005;-64
2021/03/15 02:58:35;;;;;;;24.35;11.88;;;;;;;-0.63;79.17;99394.91;1824421;78;25261;-63
2021/03/15 03:01:02;;;;;;;23.20;10.85;;;;;;;-0.65;79.04;99396.50;1731705;81;25332;-64
2021/03/15 03:03:30;;;;;;;19.17;10.18;;;;;;;-0.65;79.12;99409.77;1772042;81;25350;-64
2021/03/15 03:05:59;;;;;;;22.77;11.10;;;;;;;-0.67;79.10;99403.13;1772139;81;25516;-64
2021/03/15 03:08:27;;;;;;;21.80;12.07;;;;;;;-0.69;79.40;99406.58;1772277;81;25712;-63
2021/03/15 03:10:54;;;;;;;22.02;11.55;;;;;;;-0.71;79.37;99404.17;1743730;81;25395;-63
2021/03/15 03:13:24;;;;;;;20.65;10.28;;;;;;;-0.70;79.47;99412.40;1743757;81;25373;-63
2021/03/15 03:15:53;;;;;;;22.30;11.97;;;;;;;-0.69;79.51;99406.05;1772065;81;25327;-64
2021/03/15 03:18:24;;;;;;;22.75;11.38;;;;;;;-0.67;79.71;99413.22;1743900;81;25467;-63
2021/03/15 03:20:55;;;;;;;23.27;12.05;;;;;;;-0.67;79.96;99411.89;1743825;81;25935;-63
2021/03/15 03:23:26;;;;;;;21.85;11.50;;;;;;;-0.66;79.95;99416.70;1771285;81;25514;-63
2021/03/15 03:26:32;;;;;;;21.57;11.48;;;;;;;-0.65;80.08;99415.09;1771668;81;25256;-64
2021/03/15 03:29:00;;;;;;;17.00;10.75;;;;;;;-0.62;80.29;99423.88;1743771;81;25371;-64
2021/03/15 03:31:31;;;;;;;16.60;10.55;;;;;;;-0.60;80.28;99428.94;1740192;81;25412;-63
2021/03/15 03:34:02;;;;;;;20.25;10.65;;;;;;;-0.60;80.34;99427.61;1763245;81;25908;-63
2021/03/15 03:36:29;;;;;;;23.10;11.53;;;;;;;-0.59;80.55;99431.88;1763053;81;25526;-63
2021/03/15 03:38:56;;;;;;;24.67;12.50;;;;;;;-0.58;80.69;99430.80;1763059;81;25284;-64
2021/03/15 03:41:23;;;;;;;19.52;10.72;;;;;;;-0.54;80.89;99431.12;1763096;81;25385;-64
2021/03/15 03:43:50;;;;;;;21.02;12.20;;;;;;;-0.50;81.03;99429.53;1763132;81;25309;-64
2021/03/15 03:46:17;;;;;;;21.02;11.03;;;;;;;-0.48;81.15;99429.53;1763087;81;25788;-64
2021/03/15 03:48:44;;;;;;;21.52;10.78;;;;;;;-0.46;81.12;99438.08;1763046;81;25502;-64
2021/03/15 03:51:12;;;;;;;22.82;11.93;;;;;;;-0.43;80.95;99431.44;1763051;81;25310;-64
2021/03/15 03:53:59;;;;;;;23.40;12.13;;;;;;;-0.40;81.16;99438.36;1763207;81;25538;-63
2021/03/15 03:56:34;;;;;;;25.85;11.97;;;;;;;-0.39;81.13;99435.20;1763239;81;25499;-63
2021/03/15 03:59:01;;;;;;;24.82;11.68;;;;;;;-0.36;81.12;99432.53;1762712;81;25966;-63
2021/03/15 04:01:38;;;;;;;24.40;11.73;;;;;;;-0.36;81.24;99438.64;1763021;81;25290;-63
2021/03/15 04:04:07;;;;;;;24.50;12.53;;;;;;;-0.36;81.31;99436.52;1763195;81;25410;-63
2021/03/15 04:06:36;;;;;;;24.33;11.60;;;;;;;-0.36;81.01;99435.19;1763319;81;25557;-63
2021/03/15 04:09:13;;;;;;;22.98;11.55;;;;;;;-0.35;80.90;99438.13;1763307;81;25359;-63
2021/03/15 04:11:49;;;;;;;23.15;11.55;;;;;;;-0.35;80.84;99435.48;1763149;81;26693;-63
2021/03/15 04:14:32;;;;;;;19.65;10.40;;;;;;;-0.36;80.92;99432.53;1761017;81;25498;-63
2021/03/15 04:17:01;;;;;;;24.45;12.40;;;;;;;-0.37;80.78;99431.74;1763113;81;25378;-63
2021/03/15 04:19:42;;;;;;;21.42;11.18;;;;;;;-0.37;80.64;99442.38;1763196;81;25478;-63
2021/03/15 04:22:12;;;;;;;20.77;11.55;;;;;;;-0.39;80.52;99437.31;1762552;81;25360;-63
2021/03/15 04:24:41;;;;;;;21.75;10.75;;;;;;;-0.39;80.44;99433.33;1763083;81;26688;-63
2021/03/15 04:27:10;;;;;;;26.15;11.88;;;;;;;-0.41;80.38;99435.45;1763106;81;25451;-63
2021/03/15 04:29:39;;;;;;;;;;;;;;;-0.43;80.39;99434.88;1765529;81;25535;-63
2021/03/15 04:32:09;;;;;;;21.73;10.90;;;;;;;-0.45;80.26;99433.02;1734516;81;25312;-63
2021/03/15 04:34:37;;;;;;;19.30;10.85;;;;;;;-0.47;80.05;99433.02;1741957;82;25282;-63
2021/03/15 04:37:05;;;;;;;24.90;12.95;;;;;;;-0.51;79.67;99430.58;1772671;81;25709;-63
2021/03/15 04:39:35;;;;;;;28.30;17.60;;;;;;;-0.57;79.48;99436.40;1741833;82;25519;-63
2021/03/15 04:42:04;;;;;;;40.33;24.77;;;;;;;-0.62;79.46;99440.35;1772524;81;25454;-63
2021/03/15 04:44:34;;;;;;;33.63;18.57;;;;;;;-0.67;79.49;99438.99;1742119;82;25325;-63
2021/03/15 04:47:01;;;;;;;;;;;;;;;-0.73;79.53;99443.98;1774578;81;25308;-63
2021/03/15 04:49:30;;;;;;;32.08;17.40;;;;;;;-0.80;79.95;99452.98;1772628;81;25925;-63
2021/03/15 04:51:59;;;;;;;24.87;14.13;;;;;;;-0.83;80.30;99456.67;1741979;82;32470;-63
2021/03/15 04:54:26;;;;;;;22.52;13.15;;;;;;;-0.86;80.64;99447.34;1772596;81;25340;-63
2021/03/15 04:56:54;;;;;;;29.63;13.45;;;;;;;-0.86;80.97;99457.17;1742008;82;25533;-63
2021/03/15 04:59:23;;;;;;;23.75;12.15;;;;;;;-0.88;81.00;99454.77;1744160;81;25348;-63
2021/03/15 05:01:50;;;;;;;25.77;13.48;;;;;;;-0.89;81.30;99461.13;1741949;82;25952;-63
2021/03/15 05:04:19;;;;;;;23.77;13.98;;;;;;;-0.88;81.54;99466.72;1743972;81;25520;-63
2021/03/15 05:06:47;;;;;;;25.23;13.30;;;;;;;-0.86;81.37;99463.28;1701112;82;25373;-63
2021/03/15 05:09:16;;;;;;;22.15;12.23;;;;;;;-0.83;81.40;99469.42;1772538;81;25563;-63
2021/03/15 05:11:44;;;;;;;21.55;12.78;;;;;;;-0.77;81.63;99477.71;1742068;82;25545;-64
2021/03/15 05:14:11;;;;;;;22.80;11.60;;;;;;;-0.73;81.68;99469.21;1772560;81;25771;-64
2021/03/15 05:16:42;;;;;;;27.42;12.55;;;;;;;-0.70;81.68;99473.48;1741845;82;25515;-64
2021/03/15 05:19:12;;;;;;;25.65;13.18;;;;;;;-0.64;81.70;99467.17;1772559;81;25269;-64
2021/03/15 05:21:41;;;;;;;27.13;13.13;;;;;;;-0.56;81.76;99467.23;1724878;82;25373;-63
2021/03/15 05:24:09;;;;;;;30.23;13.62;;;;;;;-0.49;81.77;99463.82;1772727;81;25537;-63
2021/03/15 05:26:40;;;;;;;24.18;13.18;;;;;;;-0.42;81.65;99471.03;1736104;81;25902;-63
2021/03/15 05:29:14;;;;;;;28.07;14.93;;;;;;;-0.35;81.57;99474.01;1724871;82;25565;-63
2021/03/15 05:31:44;;;;;;;27.32;12.20;;;;;;;-0.28;81.46;99474.04;1772157;81;25286;-63
2021/03/15 05:34:13;;;;;;;21.87;13.13;;;;;;;-0.21;81.71;99475.14;1729815;81;25496;-63
2021/03/15 05:36:42;;;;;;;22.70;12.00;;;;;;;-0.15;81.79;99470.64;1763059;81;25378;-63
2021/03/15 05:39:09;;;;;;;25.70;12.47;;;;;;;-0.06;81.72;99475.76;1763114;81;25724;-63
2021/03/15 05:42:05;;;;;;;23.25;11.93;;;;;;;0.05;81.88;99477.42;1762958;81;25526;-63
2021/03/15 05:45:07;;;;;;;22.37;13.60;;;;;;;0.15;81.96;99482.78;1763020;81;25475;-64
2021/03/15 05:48:12;;;;;;;27.13;13.20;;;;;;;0.36;81.86;99490.30;1857614;75;34553;-62
2021/03/15 05:51:27;;;;;;;22.90;11.20;;;;;;;0.41;81.94;99494.84;1832270;77;25440;-62
2021/03/15 05:54:08;;;;;;;24.60;12.73;;;;;;;0.52;81.81;99487.15;1863472;77;26535;-64
2021/03/15 05:56:46;;;;;;;25.17;12.40;;;;;;;0.67;82.05;99494.38;1863229;77;25240;-63
2021/03/15 06:00:02;;;;;;;24.32;13.28;;;;;;;0.80;81.99;99497.09;1790258;77;25630;-63
2021/03/15 06:02:55;;;;;;;25.88;14.15;;;;;;;0.85;81.63;99485.63;1863228;77;25397;-64
2021/03/15 06:05:28;;;;;;;24.98;13.43;;;;;;;0.85;81.22;99489.11;1863305;77;25247;-64
2021/03/15 06:08:21;;;;;;;22.32;13.15;;;;;;;0.89;81.12;99486.71;1863329;77;25688;-63
2021/03/15 06:11:10;;;;;;;28.73;14.30;;;;;;;0.91;81.03;99488.03;1863286;77;25279;-62
2021/03/15 06:13:39;;;;;;;28.98;14.75;;;;;;;0.92;80.90;99488.31;1863554;77;25429;-63
2021/03/15 06:16:08;;;;;;;25.50;14.75;;;;;;;0.99;81.09;99489.90;1850418;76;25511;-63
2021/03/15 06:18:35;;;;;;;;;;;;;;;1.00;80.96;99490.97;1860183;76;25504;-63
2021/03/15 06:21:02;;;;;;;25.97;14.55;;;;;;;1.02;80.78;99485.38;1874846;76;27003;-63
2021/03/15 06:23:31;;;;;;;31.85;15.13;;;;;;;1.01;80.80;99481.92;1874702;76;25265;-63
2021/03/15 06:25:57;;;;;;;26.52;14.70;;;;;;;1.06;80.96;99487.80;1874755;76;25458;-63
2021/03/15 06:28:25;;;;;;;33.13;15.38;;;;;;;1.09;80.75;99492.57;1869798;76;25468;-63
2021/03/15 06:30:53;;;;;;;30.02;16.42;;;;;;;1.13;80.77;99502.19;1816206;77;25434;-53
2021/03/15 06:33:21;;;;;;;28.60;16.43;;;;;;;1.18;80.73;99512.30;1772251;79;25696;-57
2021/03/15 06:36:04;;;;;;;32.42;17.12;;;;;;;1.22;80.64;99506.70;1787978;80;25589;-56
2021/03/15 06:38:34;;;;;;;28.15;15.78;;;;;;;1.24;80.70;99507.26;1774573;80;25490;-53
2021/03/15 06:41:05;;;;;;;33.13;17.20;;;;;;;1.28;80.73;99501.66;1763130;80;25544;-56
2021/03/15 06:43:32;;;;;;;31.35;17.48;;;;;;;1.37;80.79;99513.91;1734869;82;25552;-56
2021/03/15 06:45:59;;;;;;;33.50;17.65;;;;;;;1.38;80.52;99514.70;1734811;82;25723;-57
2021/03/15 06:48:26;;;;;;;37.13;18.57;;;;;;;1.39;80.45;99517.64;1758215;80;26520;-57
2021/03/15 06:50:55;;;;;;;31.33;16.87;;;;;;;1.43;80.50;99512.84;1778142;79;25690;-55
2021/03/15 06:53:23;;;;;;;35.05;17.00;;;;;;;1.48;80.43;99524.02;1764572;81;25418;-56
2021/03/15 06:55:54;;;;;;;33.60;17.60;;;;;;;1.49;80.23;99517.09;1775445;80;25473;-57
2021/03/15 06:58:31;;;;;;;26.45;16.82;;;;;;;1.53;80.28;99513.36;1755097;80;25928;-56
2021/03/15 07:01:12;;;;;;;28.35;18.20;;;;;;;1.54;80.18;99508.30;1741612;82;25630;-57
2021/03/15 07:03:41;;;;;;;31.30;17.77;;;;;;;1.58;80.29;99511.23;1745816;81;25739;-56
2021/03/15 07:06:10;;;;;;;34.23;19.73;;;;;;;1.60;80.17;99509.91;1785813;80;25292;-56
2021/03/15 07:08:37;;;;;;;36.42;18.20;;;;;;;1.62;80.27;99515.77;1772345;81;25556;-55
2021/03/15 07:11:03;;;;;;;33.63;17.37;;;;;;;1.67;80.29;99506.97;1785710;80;25760;-55
2021/03/15 07:13:37;;;;;;;36.13;17.65;;;;;;;1.77;80.49;99521.62;1772095;81;25451;-56
2021/03/15 07:16:05;;;;;;;35.50;17.10;;;;;;;1.85;80.39;99521.05;1795101;79;25461;-57
2021/03/15 07:18:34;;;;;;;31.23;18.42;;;;;;;1.97;80.42;99516.76;1803736;79;25534;-56
2021/03/15 07:21:05;;;;;;;42.05;20.17;;;;;;;2.02;80.16;99523.95;1783338;79;25532;-55
2021/03/15 07:23:50;;;;;;;35.70;18.17;;;;;;;2.09;80.02;99519.13;1771874;81;28122;-56
2021/03/15 07:26:25;;;;;;;34.43;18.65;;;;;;;2.18;80.07;99516.70;1771848;81;25548;-56
2021/03/15 07:28:54;;;;;;;38.85;19.42;;;;;;;2.29;80.04;99520.94;1770671;81;25838;-53
2021/03/15 07:31:24;;;;;;;32.60;19.60;;;;;;;2.36;79.95;99521.98;1771966;80;25662;-57
2021/03/15 07:34:02;;;;;;;45.40;20.72;;;;;;;2.47;79.91;99513.39;1772288;79;25487;-57
2021/03/15 07:36:37;;;;;;;47.40;22.25;;;;;;;2.59;79.78;99511.22;1741182;82;25904;-58
2021/03/15 07:39:11;;;;;;;44.30;22.45;;;;;;;2.70;79.81;99515.95;1746053;81;26455;-55
2021/03/15 07:41:39;;;;;;;39.73;21.35;;;;;;;2.84;79.85;99519.61;1756269;81;25692;-54
2021/03/15 07:44:23;;;;;;;48.87;22.95;;;;;;;2.90;79.39;99531.87;1756348;81;25483;-57
2021/03/15 07:46:53;;;;;;;41.65;21.35;;;;;;;2.95;79.30;99537.18;1740617;82;25517;-55
2021/03/15 07:49:38;;;;;;;43.98;22.77;;;;;;;3.02;79.15;99533.41;1741052;81;25772;-54
2021/03/15 07:52:11;;;;;;;42.50;22.25;;;;;;;3.12;79.39;99531.47;1771298;81;25467;-56
2021/03/15 07:54:42;;;;;;;46.05;23.87;;;;;;;3.28;79.45;99528.13;1744255;81;25556;-56
2021/03/15 07:57:24;;;;;;;42.95;23.27;;;;;;;3.50;79.35;99528.24;1849289;76;34524;-55
2021/03/15 07:59:58;;;;;;;49.38;23.95;;;;;;;3.52;78.90;99526.90;1815371;78;25503;-57
2021/03/15 08:02:27;;;;;;;44.90;23.12;;;;;;;3.54;78.34;99527.92;1806084;79;25684;-57
2021/03/15 08:04:56;;;;;;;44.48;24.27;;;;;;;3.53;78.00;99531.70;1806274;79;29557;-56
2021/03/15 08:07:24;;;;;;;48.05;23.57;;;;;;;3.49;77.81;99526.63;1816615;77;25579;-56
2021/03/15 08:09:58;;;;;;;50.70;24.65;;;;;;;3.45;77.94;99540.31;1817392;78;25339;-55
2021/03/15 08:12:37;;;;;;;51.48;24.25;;;;;;;3.39;77.80;99528.05;1817282;79;25545;-57
2021/03/15 08:15:10;;;;;;;46.92;24.63;;;;;;;3.37;78.01;99528.33;1817393;78;26765;-57
2021/03/15 08:17:44;;;;;;;49.80;25.77;;;;;;;3.39;78.19;99537.41;1817068;78;25446;-55
2021/03/15 08:20:13;;;;;;;44.70;25.48;;;;;;;3.41;78.16;99529.94;1816442;79;25438;-56
2021/03/15 08:22:47;;;;;;;48.67;25.50;;;;;;;3.47;78.15;99528.25;1802689;77;25426;-56
2021/03/15 08:25:15;;;;;;;48.68;25.12;;;;;;;3.49;77.95;99531.98;1799133;77;25702;-55
2021/03/15 08:27:43;;;;;;;50.23;26.17;;;;;;;3.54;78.30;99526.08;1787991;77;25690;-56
2021/03/15 08:30:23;;;;;;;52.07;27.17;;;;;;;3.64;78.25;99535.86;1812972;77;25663;-57
2021/03/15 08:32:52;;;;;;;55.17;25.55;;;;;;;3.71;77.95;99536.87;1810541;78;25713;-56
2021/03/15 08:35:21;;;;;;;51.37;25.72;;;;;;;3.77;77.79;99543.78;1818676;78;25504;-57
2021/03/15 08:37:58;;;;;;;47.73;24.92;;;;;;;3.83;77.75;99544.53;1813177;78;25576;-58
2021/03/15 08:40:47;;;;;;;47.23;24.37;;;;;;;3.89;77.81;99544.20;1804448;78;27203;-57
2021/03/15 08:43:25;;;;;;;47.35;23.85;;;;;;;3.98;77.75;99544.37;1818915;78;25445;-57
2021/03/15 08:46:04;;;;;;;44.13;22.07;;;;;;;3.95;77.01;99542.29;1818949;78;25516;-57
2021/03/15 08:48:42;;;;;;;42.50;21.93;;;;;;;3.91;76.98;99551.39;1796133;78;25628;-55
2021/03/15 08:51:56;;;;;;;40.17;21.05;;;;;;;3.91;76.88;99554.62;1797676;77;25639;-57
2021/03/15 08:54:47;;;;;;;36.33;20.45;;;;;;;3.89;77.06;99543.41;1805919;77;26775;-56
2021/03/15 08:57:33;;;;;;;40.33;19.32;;;;;;;3.97;77.43;99544.66;1797940;77;25311;-56
2021/03/15 09:00:22;;;;;;;41.15;19.77;;;;;;;4.01;77.14;99545.70;1820540;78;25335;-56
2021/03/15 09:02:49;;;;;;;37.27;20.87;;;;;;;4.01;77.05;99555.86;1820697;78;25999;-55
2021/03/15 09:05:25;;;;;;;44.20;22.00;;;;;;;3.95;76.75;99554.85;1818579;78;25553;-56
2021/03/15 09:07:55;;;;;;;41.25;21.87;;;;;;;3.90;76.82;99559.73;1811498;78;25964;-56
2021/03/15 09:10:34;;;;;;;48.48;24.37;;;;;;;3.86;76.88;99556.01;1814500;78;25567;-56
2021/03/15 09:13:23;;;;;;;46.80;23.35;;;;;;;3.84;76.91;99564.86;1799481;78;25458;-55
2021/03/15 09:15:59;;;;;;;45.73;23.85;;;;;;;3.83;77.05;99560.58;1751906;81;25546;-57
2021/03/15 09:18:48;;;;;;;51.18;25.15;;;;;;;3.86;77.21;99556.01;1757856;80;25784;-58
2021/03/15 09:21:30;;;;;;;55.33;28.00;;;;;;;3.91;77.48;99559.42;1776587;79;26315;-57
2021/03/15 09:24:27;;;;;;;52.27;27.40;;;;;;;4.04;77.43;99549.95;1969968;72;34740;-52
2021/03/15 09:26:54;;;;;;;47.27;27.07;;;;;;;4.05;77.24;99556.91;1939206;72;25509;-55
2021/03/15 09:29:21;;;;;;;50.73;26.10;;;;;;;4.14;77.36;99558.94;1917733;72;26556;-56
2021/03/15 09:32:10;;;;;;;51.50;26.07;;;;;;;4.22;77.20;99557.80;1928679;73;25242;-58
2021/03/15 09:34:38;;;;;;;51.05;26.30;;;;;;;4.27;76.88;99556.92;1926142;72;25612;-55
2021/03/15 09:37:07;;;;;;;46.20;25.10;;;;;;;4.37;77.18;99558.15;1888379;75;25522;-55
2021/03/15 09:39:34;;;;;;;48.97;25.17;;;;;;;4.53;77.14;99554.77;1905535;75;25513;-56
2021/03/15 09:42:02;;;;;;;43.68;20.75;;;;;;;4.67;76.83;99559.67;1905221;75;25675;-57
2021/03/15 09:44:32;;;;;;;38.83;20.30;;;;;;;4.74;76.05;99557.98;1907067;73;25489;-56
2021/03/15 09:47:00;;;;;;;40.45;19.98;;;;;;;4.79;75.99;99554.45;1943198;72;25592;-55
2021/03/15 09:49:38;;;;;;;39.90;19.95;;;;;;;4.85;75.42;99558.64;1937175;73;25292;-57
2021/03/15 09:52:22;;;;;;;36.70;17.92;;;;;;;4.86;75.28;99550.31;1936812;72;25524;-56
2021/03/15 09:54:55;;;;;;;34.53;18.35;;;;;;;4.93;75.14;99553.98;1941509;73;26139;-57
2021/03/15 09:57:24;;;;;;;37.48;18.95;;;;;;;4.98;75.28;99554.45;1871966;76;25618;-55
2021/03/15 09:59:52;;;;;;;35.43;18.42;;;;;;;5.09;75.25;99548.40;1922454;74;25439;-55
2021/03/15 10:02:31;;;;;;;36.20;18.65;;;;;;;5.21;75.03;99556.27;1884137;74;25529;-55
2021/03/15 10:04:57;;;;;;;32.05;17.20;;;;;;;5.29;74.27;99554.01;1834862;78;25302;-55
2021/03/15 10:07:24;;;;;;;30.92;18.05;;;;;;;5.36;73.98;99550.41;1868321;76;25833;-55
2021/03/15 10:09:50;;;;;;;27.70;16.10;;;;;;;5.37;73.99;99550.67;1868638;76;25487;-56
2021/03/15 10:12:21;;;;;;;30.70;16.27;;;;;;;5.46;73.93;99560.19;1868474;76;25519;-56
2021/03/15 10:15:05;;;;;;;36.98;18.25;;;;;;;5.53;74.12;99562.73;1868481;76;25570;-52
2021/03/15 10:17:33;;;;;;;34.83;18.87;;;;;;;5.57;73.24;99548.22;1882151;74;25514;-56
2021/03/15 10:19:59;;;;;;;33.13;19.20;;;;;;;5.69;73.50;99551.78;1894498;75;26593;-55
2021/03/15 10:22:27;;;;;;;38.17;18.70;;;;;;;5.88;73.24;99545.01;1905341;74;25532;-55
2021/03/15 10:24:53;;;;;;;34.08;18.67;;;;;;;6.11;73.73;99541.40;1913800;75;25506;-53
2021/03/15 10:27:27;;;;;;;35.00;18.95;;;;;;;6.38;73.31;99535.77;1913603;75;25613;-55
2021/03/15 10:30:11;;;;;;;28.73;17.25;;;;;;;6.55;73.14;99535.16;1913656;75;25600;-55
2021/03/15 10:32:42;;;;;;;32.15;16.82;;;;;;;6.67;72.01;99535.43;1884154;75;25789;-54
2021/03/15 10:35:10;;;;;;;35.95;17.30;;;;;;;6.67;71.39;99537.33;1905528;75;25595;-55
2021/03/15 10:37:41;;;;;;;28.15;16.57;;;;;;;6.77;71.71;99537.12;1912932;75;26310;-55
2021/03/15 10:40:11;;;;;;;32.98;18.17;;;;;;;6.97;70.60;99533.75;1913188;75;25629;-55
2021/03/15 10:42:39;;;;;;;30.62;17.35;;;;;;;7.05;70.89;99527.09;1913099;75;25619;-53
2021/03/15 10:45:12;;;;;;;30.23;17.10;;;;;;;7.17;70.47;99522.53;1913046;75;25810;-53
2021/03/15 10:47:40;;;;;;;27.52;16.65;;;;;;;7.25;70.26;99520.45;1912988;75;25582;-54
2021/03/15 10:50:34;;;;;;;30.20;17.67;;;;;;;7.34;69.35;99515.67;1877442;76;25508;-54
2021/03/15 10:53:21;;;;;;;31.90;17.60;;;;;;;7.44;69.23;99515.42;1878050;75;25263;-59
2021/03/15 10:55:50;;;;;;;30.12;17.25;;;;;;;7.59;69.87;99511.56;1932810;74;25525;-55
2021/03/15 10:58:19;;;;;;;34.58;18.55;;;;;;;7.74;69.17;99511.17;1934772;72;26510;-57
2021/03/15 11:00:54;;;;;;;31.57;18.92;;;;;;;7.67;68.49;99510.27;1942387;73;25466;-55
2021/03/15 11:03:30;;;;;;;31.52;18.27;;;;;;;7.71;68.85;99506.39;1930624;72;25557;-55
2021/03/15 11:06:10;;;;;;;30.00;17.40;;;;;;;7.74;68.41;99499.62;1911700;75;25176;-55
2021/03/15 11:08:37;;;;;;;34.10;17.50;;;;;;;7.77;68.32;99500.35;1916585;73;25532;-56
2021/03/15 11:11:28;;;;;;;29.90;17.77;;;;;;;7.72;68.11;99495.09;1948877;73;25868;-54
2021/03/15 11:13:59;;;;;;;28.23;17.95;;;;;;;7.72;67.99;99494.54;1948438;73;25288;-56
2021/03/15 11:16:31;;;;;;;29.23;16.62;;;;;;;7.70;67.84;99492.71;1949119;73;25610;-56
2021/03/15 11:19:09;;;;;;;27.13;15.98;;;;;;;7.71;67.65;99494.84;1960055;73;25478;-56
2021/03/15 11:21:46;;;;;;;31.75;17.82;;;;;;;7.75;67.59;99491.23;1953721;73;25594;-54
2021/03/15 11:24:15;;;;;;;26.87;15.50;;;;;;;7.79;67.23;99496.23;1958831;73;25661;-52
2021/03/15 11:26:51;;;;;;;39.98;22.35;;;;;;;7.99;67.98;99486.03;1949401;73;25626;-55
2021/03/15 11:29:37;;;;;;;29.00;17.92;;;;;;;8.66;68.44;99474.73;1857877;76;25552;-55
2021/03/15 11:32:12;;;;;;;29.15;17.20;;;;;;;9.48;68.63;99480.23;1868645;76;25590;-57
2021/03/15 11:34:46;;;;;;;31.50;15.05;;;;;;;9.91;66.94;99476.05;1868650;76;25594;-54
2021/03/15 11:37:18;;;;;;;24.57;14.78;;;;;;;10.03;65.62;99472.67;1868332;76;25772;-55
2021/03/15 11:39:45;;;;;;;23.30;14.23;;;;;;;10.00;63.79;99477.93;1865024;76;25615;-54
2021/03/15 11:42:28;;;;;;;22.07;13.65;;;;;;;9.88;63.39;99474.56;1871115;75;25594;-55
2021/03/15 11:44:54;;;;;;;23.20;13.25;;;;;;;9.79;62.69;99471.90;1902589;75;25345;-54
2021/03/15 11:47:21;;;;;;;26.57;14.00;;;;;;;9.77;62.85;99467.92;1867379;76;25416;-55
2021/03/15 11:49:47;;;;;;;23.67;14.40;;;;;;;9.93;63.47;99462.23;1884812;75;25762;-56
2021/03/15 11:52:27;;;;;;;26.00;14.05;;;;;;;10.12;62.89;99458.33;1872655;76;25581;-57
2021/03/15 11:54:54;;;;;;;20.72;12.35;;;;;;;10.21;62.38;99462.55;1885505;75;25512;-54
2021/03/15 11:57:21;;;;;;;19.23;12.80;;;;;;;10.31;61.16;99455.20;1883979;76;25572;-56
2021/03/15 11:59:48;;;;;;;24.57;13.18;;;;;;;10.26;61.06;99454.82;1867139;76;25425;-56
2021/03/15 12:02:14;;;;;;;21.73;12.47;;;;;;;10.36;60.07;99459.09;1863976;77;26196;-54